createdAt,value
2022-12-04T00:00:27.499Z,78.94
2022-12-04T00:02:54.464Z,78.93
2022-12-04T00:05:21.446Z,78.61
2022-12-04T00:07:48.359Z,78.58
2022-12-04T00:10:15.232Z,78.74
2022-12-04T00:12:42.117Z,78.64
2022-12-04T00:15:25.255Z,78.73
2022-12-04T00:17:52.834Z,79.11
2022-12-04T00:20:20.102Z,79.24
2022-12-04T00:22:47.053Z,79.31
2022-12-04T00:25:13.988Z,79.27
2022-12-04T00:27:40.881Z,79.12
2022-12-04T00:30:08.316Z,78.94
2022-12-04T00:32:35.207Z,78.74
2022-12-04T00:35:02.077Z,78.59
2022-12-04T00:37:29.036Z,78.50
2022-12-04T00:39:56.020Z,78.44
2022-12-04T00:42:23.016Z,78.05
2022-12-04T00:44:49.817Z,77.91
2022-12-04T00:47:16.688Z,77.36
2022-12-04T00:49:43.459Z,77.72
2022-12-04T00:52:10.367Z,77.69
2022-12-04T00:54:37.208Z,77.95
2022-12-04T00:57:04.149Z,78.09
2022-12-04T00:59:31.119Z,78.35
2022-12-04T01:01:58.029Z,78.20
2022-12-04T01:04:24.910Z,77.65
2022-12-04T01:06:51.832Z,77.58
2022-12-04T01:09:19.012Z,77.69
2022-12-04T01:11:46.030Z,77.67
2022-12-04T01:14:12.863Z,78.01
2022-12-04T01:16:40.744Z,78.02
2022-12-04T01:19:11.444Z,77.63
2022-12-04T01:21:39.235Z,78.11
2022-12-04T01:24:06.446Z,77.92
2022-12-04T01:26:33.394Z,77.82
2022-12-04T01:29:00.433Z,77.79
2022-12-04T01:31:27.563Z,77.60
2022-12-04T01:33:54.535Z,77.39
2022-12-04T01:36:24.127Z,77.08
2022-12-04T01:38:51.400Z,77.25
2022-12-04T01:41:22.566Z,77.40
2022-12-04T01:44:17.328Z,77.18
2022-12-04T01:46:56.231Z,76.86
2022-12-04T01:49:41.419Z,77.24
2022-12-04T01:52:16.072Z,76.53
2022-12-04T01:54:47.386Z,76.52
2022-12-04T01:57:19.734Z,76.37
2022-12-04T01:59:55.936Z,75.83
2022-12-04T02:02:30.444Z,75.63
2022-12-04T02:04:57.320Z,76.16
2022-12-04T02:07:24.282Z,75.78
2022-12-04T02:09:56.127Z,75.87
2022-12-04T02:12:36.808Z,74.69
2022-12-04T02:15:06.745Z,74.40
2022-12-04T02:17:51.561Z,74.46
2022-12-04T02:20:31.382Z,74.07
2022-12-04T02:23:29.717Z,74.10
2022-12-04T02:26:03.024Z,73.80
2022-12-04T02:28:39.925Z,73.76
2022-12-04T02:31:10.644Z,74.03
2022-12-04T02:33:45.288Z,73.74
2022-12-04T02:36:19.480Z,74.28
2022-12-04T02:39:11.710Z,74.68
2022-12-04T02:41:44.267Z,74.75
2022-12-04T02:44:21.899Z,74.85
2022-12-04T02:47:04.987Z,74.15
2022-12-04T02:49:46.207Z,73.42
2022-12-04T02:52:17.830Z,73.72
2022-12-04T02:54:49.602Z,73.72
2022-12-04T02:57:23.983Z,74.05
2022-12-04T02:59:53.921Z,73.54
2022-12-04T03:02:34.370Z,73.35
2022-12-04T03:05:07.423Z,74.22
2022-12-04T03:07:49.379Z,74.60
2022-12-04T03:10:25.229Z,74.36
2022-12-04T03:13:20.323Z,74.67
2022-12-04T03:15:53.943Z,74.96
2022-12-04T03:18:33.501Z,75.46
2022-12-04T03:21:09.704Z,75.55
2022-12-04T03:23:46.211Z,74.90
2022-12-04T03:26:18.703Z,75.21
2022-12-04T03:29:20.198Z,74.95
2022-12-04T03:31:55.948Z,74.78
2022-12-04T03:34:35.798Z,74.69
2022-12-04T03:37:10.682Z,75.06
2022-12-04T03:39:58.815Z,75.70
2022-12-04T03:42:39.885Z,76.14
2022-12-04T03:45:34.262Z,76.47
2022-12-04T03:48:22.685Z,76.73
2022-12-04T03:51:04.900Z,77.11
2022-12-04T03:53:51.338Z,77.24
2022-12-04T03:56:25.393Z,77.18
2022-12-04T03:59:10.814Z,77.32
2022-12-04T04:01:43.483Z,77.21
2022-12-04T04:04:15.690Z,77.30
2022-12-04T04:06:53.032Z,77.55
2022-12-04T04:09:24.793Z,77.48
2022-12-04T04:12:02.959Z,77.47
2022-12-04T04:15:22.172Z,77.47
2022-12-04T04:18:09.769Z,77.48
2022-12-04T04:20:57.766Z,77.18
2022-12-04T04:23:45.776Z,77.17
2022-12-04T04:26:14.546Z,77.63
2022-12-04T04:28:42.714Z,77.72
2022-12-04T04:31:21.396Z,77.31
2022-12-04T04:34:25.134Z,76.86
2022-12-04T04:37:00.679Z,75.99
2022-12-04T04:39:42.394Z,76.10
2022-12-04T04:42:26.836Z,75.96
2022-12-04T04:45:25.108Z,75.55
2022-12-04T04:48:02.794Z,75.80
2022-12-04T04:50:32.025Z,75.54
2022-12-04T04:53:03.877Z,75.71
2022-12-04T04:55:34.606Z,75.94
2022-12-04T04:58:16.962Z,75.85
2022-12-04T05:00:56.773Z,75.95
2022-12-04T05:03:23.884Z,76.31
2022-12-04T05:05:50.860Z,76.89
2022-12-04T05:08:18.053Z,77.32
2022-12-04T05:10:45.049Z,77.53
2022-12-04T05:13:13.045Z,77.67
2022-12-04T05:15:40.207Z,78.24
2022-12-04T05:18:07.656Z,78.35
2022-12-04T05:20:34.902Z,78.47
2022-12-04T05:23:01.764Z,78.82
2022-12-04T05:25:28.588Z,79.02
2022-12-04T05:27:55.423Z,79.17
2022-12-04T05:30:22.248Z,79.18
2022-12-04T05:32:49.159Z,79.14
2022-12-04T05:35:16.244Z,79.38
2022-12-04T05:37:43.106Z,79.49
2022-12-04T05:40:10.305Z,79.31
2022-12-04T05:42:37.271Z,79.18
2022-12-04T05:45:04.511Z,79.40
2022-12-04T05:47:31.384Z,79.78
2022-12-04T05:49:58.518Z,80.31
2022-12-04T05:52:25.532Z,81.09
2022-12-04T05:54:52.325Z,80.94
2022-12-04T05:57:19.187Z,80.96
2022-12-04T05:59:45.986Z,80.82
2022-12-04T06:02:12.891Z,80.67
2022-12-04T06:04:39.743Z,80.44
2022-12-04T06:07:07.044Z,80.35
2022-12-04T06:09:33.912Z,80.45
2022-12-04T06:12:00.807Z,80.64
2022-12-04T06:14:27.694Z,80.98
2022-12-04T06:16:54.936Z,80.85
2022-12-04T06:19:23.095Z,80.74
2022-12-04T06:21:52.407Z,80.59
2022-12-04T06:24:22.521Z,80.75
2022-12-04T06:27:25.685Z,80.72
2022-12-04T06:29:37.007Z,80.72
2022-12-04T06:32:04.259Z,80.62
2022-12-04T06:34:31.279Z,81.25
2022-12-04T06:36:58.180Z,81.09
2022-12-04T06:39:25.075Z,80.89
2022-12-04T06:41:51.877Z,80.29
2022-12-04T06:44:18.765Z,80.01
2022-12-04T06:46:47.335Z,79.70
2022-12-04T06:49:14.971Z,79.45
2022-12-04T06:51:42.065Z,79.31
2022-12-04T06:54:10.474Z,79.46
2022-12-04T06:56:37.437Z,79.87
2022-12-04T06:59:04.832Z,80.40
2022-12-04T07:01:33.726Z,80.70
2022-12-04T07:04:03.997Z,80.66
2022-12-04T07:06:36.104Z,80.62
2022-12-04T07:09:11.552Z,80.53
2022-12-04T07:11:39.963Z,80.58
2022-12-04T07:14:07.147Z,80.47
2022-12-04T07:16:40.277Z,80.73
2022-12-04T07:19:09.342Z,81.00
2022-12-04T07:21:36.161Z,81.00
2022-12-04T07:24:03.122Z,80.91
2022-12-04T07:26:30.907Z,80.90
2022-12-04T07:28:58.875Z,80.81
2022-12-04T07:31:27.146Z,80.73
2022-12-04T07:33:55.073Z,80.85
2022-12-04T07:36:23.449Z,80.65
2022-12-04T07:38:50.869Z,80.06
2022-12-04T07:41:18.355Z,79.88
2022-12-04T07:43:45.468Z,79.83
2022-12-04T07:46:17.862Z,79.67
2022-12-04T07:48:45.755Z,79.64
2022-12-04T07:51:15.981Z,79.87
2022-12-04T07:53:43.934Z,79.81
2022-12-04T07:56:12.224Z,79.84
2022-12-04T07:58:39.704Z,79.95
2022-12-04T08:01:15.699Z,79.66
2022-12-04T08:03:48.195Z,79.61
2022-12-04T08:06:18.093Z,79.41
2022-12-04T08:08:45.833Z,79.45
2022-12-04T08:11:15.764Z,79.41
2022-12-04T08:13:42.707Z,79.46
2022-12-04T08:16:11.161Z,79.74
2022-12-04T08:18:38.576Z,79.63
2022-12-04T08:21:12.128Z,79.62
2022-12-04T08:23:40.897Z,79.85
2022-12-04T08:26:08.978Z,80.33
2022-12-04T08:28:36.800Z,80.39
2022-12-04T08:31:05.741Z,80.68
2022-12-04T08:33:33.400Z,80.85
2022-12-04T08:36:00.563Z,81.01
2022-12-04T08:38:27.557Z,80.88
2022-12-04T08:40:54.341Z,80.85
2022-12-04T08:43:21.243Z,80.67
2022-12-04T08:45:58.799Z,80.71
2022-12-04T08:48:26.607Z,81.20
2022-12-04T08:50:54.093Z,81.68
2022-12-04T08:53:21.665Z,81.59
2022-12-04T08:55:48.541Z,81.82
2022-12-04T08:58:16.127Z,82.40
2022-12-04T09:00:43.221Z,82.44
2022-12-04T09:03:14.656Z,82.40
2022-12-04T09:05:42.159Z,82.49
2022-12-04T09:08:09.434Z,82.58
2022-12-04T09:10:37.152Z,82.29
2022-12-04T09:13:04.880Z,81.70
2022-12-04T09:15:32.246Z,81.37
2022-12-04T09:17:59.152Z,81.37
2022-12-04T09:20:26.180Z,81.39
2022-12-04T09:23:03.982Z,81.36
2022-12-04T09:25:34.819Z,81.54
2022-12-04T09:28:01.676Z,81.34
2022-12-04T09:30:28.420Z,81.39
2022-12-04T09:32:55.308Z,81.88
2022-12-04T09:35:22.257Z,82.24
2022-12-04T09:37:49.095Z,82.09
2022-12-04T09:40:36.808Z,81.96
2022-12-04T09:43:31.338Z,81.76
2022-12-04T09:46:04.708Z,81.16
2022-12-04T09:48:40.038Z,80.81
2022-12-04T09:51:16.337Z,80.65
2022-12-04T09:53:53.071Z,80.39
2022-12-04T09:56:21.323Z,80.33
2022-12-04T09:58:56.061Z,80.19
2022-12-04T10:01:40.198Z,80.42
2022-12-04T10:04:10.402Z,80.64
2022-12-04T10:06:44.640Z,81.22
2022-12-04T10:09:35.111Z,81.37
2022-12-04T10:12:13.846Z,81.49
2022-12-04T10:15:18.798Z,81.23
2022-12-04T10:17:51.774Z,80.78
2022-12-04T10:20:43.587Z,80.45
2022-12-04T10:23:13.679Z,80.07
2022-12-04T10:25:42.465Z,79.88
2022-12-04T10:28:33.042Z,79.90
2022-12-04T10:31:02.870Z,80.70
2022-12-04T10:33:51.884Z,81.40
2022-12-04T10:36:21.909Z,82.23
2022-12-04T10:38:59.726Z,82.88
2022-12-04T10:41:44.233Z,82.78
2022-12-04T10:44:17.015Z,82.72
2022-12-04T10:46:46.291Z,82.47
2022-12-04T10:49:23.317Z,82.32
2022-12-04T10:51:50.384Z,82.77
2022-12-04T10:54:21.856Z,82.95
2022-12-04T10:57:07.339Z,82.94
2022-12-04T10:59:35.242Z,82.59
2022-12-04T11:02:30.445Z,82.28
2022-12-04T11:05:07.144Z,82.18
2022-12-04T11:07:45.439Z,82.24
2022-12-04T11:10:24.260Z,82.38
2022-12-04T11:13:14.884Z,82.00
2022-12-04T11:15:46.701Z,81.66
2022-12-04T11:18:23.636Z,81.56
2022-12-04T11:20:57.554Z,81.89
2022-12-04T11:23:26.101Z,81.97
2022-12-04T11:25:59.361Z,82.04
2022-12-04T11:28:41.519Z,81.30
2022-12-04T11:31:10.711Z,81.33
2022-12-04T11:33:40.537Z,80.88
2022-12-04T11:36:24.465Z,80.69
2022-12-04T11:38:53.926Z,80.42
2022-12-04T11:41:32.642Z,80.58
2022-12-04T11:44:00.895Z,80.93
2022-12-04T11:46:30.931Z,80.65
2022-12-04T11:48:58.198Z,80.27
2022-12-04T11:51:49.013Z,79.14
2022-12-04T11:54:21.592Z,79.30
2022-12-04T11:57:14.751Z,79.30
2022-12-04T11:59:56.629Z,79.30
2022-12-04T12:02:48.410Z,79.00
2022-12-04T12:05:42.792Z,78.90
2022-12-04T12:08:37.293Z,79.65
2022-12-04T12:11:25.908Z,79.97
2022-12-04T12:14:25.763Z,79.82
2022-12-04T12:17:17.225Z,80.05
2022-12-04T12:19:58.224Z,79.41
2022-12-04T12:22:28.199Z,78.63
2022-12-04T12:25:22.496Z,78.88
2022-12-04T12:27:55.330Z,78.97
2022-12-04T12:30:24.312Z,78.96
2022-12-04T12:33:21.753Z,79.44
2022-12-04T12:36:09.155Z,80.91
2022-12-04T12:38:54.528Z,81.54
2022-12-04T12:41:37.242Z,81.75
2022-12-04T12:44:25.432Z,81.96
2022-12-04T12:46:56.803Z,82.07
2022-12-04T12:49:28.119Z,81.90
2022-12-04T12:52:36.367Z,81.88
2022-12-04T12:55:17.264Z,82.50
2022-12-04T12:57:56.470Z,82.22
2022-12-04T13:00:24.469Z,81.55
2022-12-04T13:02:58.537Z,80.92
2022-12-04T13:05:44.777Z,80.70
2022-12-04T13:08:23.093Z,80.22
2022-12-04T13:11:28.135Z,79.95
2022-12-04T13:13:58.792Z,79.91
2022-12-04T13:16:28.593Z,79.65
2022-12-04T13:19:34.450Z,79.83
2022-12-04T13:22:10.371Z,79.90
2022-12-04T13:25:21.440Z,79.82
2022-12-04T13:28:02.937Z,80.90
2022-12-04T13:30:51.653Z,81.77
2022-12-04T13:33:35.564Z,81.83
2022-12-04T13:36:17.684Z,82.01
2022-12-04T13:39:02.865Z,81.89
2022-12-04T13:41:32.368Z,81.97
2022-12-04T13:44:04.135Z,82.19
2022-12-04T13:46:40.487Z,81.97
2022-12-04T13:49:17.746Z,81.37
2022-12-04T13:51:49.445Z,81.27
2022-12-04T13:54:16.451Z,81.19
2022-12-04T13:56:52.488Z,81.13
2022-12-04T13:59:28.302Z,80.85
2022-12-04T14:02:08.093Z,80.70
2022-12-04T14:04:46.038Z,81.41
2022-12-04T14:07:40.532Z,82.13
2022-12-04T14:10:27.015Z,82.29
2022-12-04T14:13:19.485Z,83.04
2022-12-04T14:15:46.655Z,82.78
2022-12-04T14:18:13.423Z,82.47
2022-12-04T14:20:44.545Z,82.28
2022-12-04T14:23:26.205Z,81.57
2022-12-04T14:25:57.882Z,81.01
2022-12-04T14:28:27.787Z,80.78
2022-12-04T14:31:44.133Z,80.93
2022-12-04T14:34:23.969Z,80.59
2022-12-04T14:36:53.067Z,81.36
2022-12-04T14:39:50.123Z,81.59
2022-12-04T14:42:32.197Z,81.79
2022-12-04T14:45:01.003Z,82.02
2022-12-04T14:48:06.897Z,82.07
2022-12-04T14:50:55.720Z,81.81
2022-12-04T14:53:44.766Z,81.56
2022-12-04T14:56:40.881Z,81.52
2022-12-04T14:59:17.587Z,81.43
2022-12-04T15:01:46.926Z,81.39
2022-12-04T15:04:26.646Z,81.50
2022-12-04T15:07:00.010Z,81.62
2022-12-04T15:09:47.032Z,81.52
2022-12-04T15:12:33.766Z,81.44
2022-12-04T15:15:14.393Z,81.36
2022-12-04T15:17:41.441Z,81.29
2022-12-04T15:20:16.070Z,81.58
2022-12-04T15:22:43.396Z,81.69
2022-12-04T15:25:23.818Z,81.79
2022-12-04T15:27:53.860Z,81.99
2022-12-04T15:30:23.435Z,81.89
2022-12-04T15:32:53.444Z,81.81
2022-12-04T15:35:26.193Z,81.84
2022-12-04T15:37:54.574Z,81.78
2022-12-04T15:40:27.607Z,81.77
2022-12-04T15:43:05.848Z,81.75
2022-12-04T15:45:34.469Z,81.61
2022-12-04T15:48:01.852Z,81.49
2022-12-04T15:50:30.840Z,81.34
2022-12-04T15:53:06.664Z,81.14
2022-12-04T15:55:40.397Z,81.10
2022-12-04T15:58:18.479Z,80.75
2022-12-04T16:00:45.587Z,80.82
2022-12-04T16:03:27.294Z,80.75
2022-12-04T16:06:33.434Z,80.12
2022-12-04T16:09:13.301Z,80.08
2022-12-04T16:11:41.941Z,79.71
2022-12-04T16:14:08.699Z,79.89
2022-12-04T16:16:42.334Z,79.97
2022-12-04T16:19:17.438Z,79.91
2022-12-04T16:21:44.899Z,80.08
2022-12-04T16:24:13.410Z,80.20
2022-12-04T16:26:41.161Z,80.18
2022-12-04T16:29:08.341Z,80.24
2022-12-04T16:31:35.520Z,80.29
2022-12-04T16:34:02.543Z,80.45
2022-12-04T16:36:29.599Z,80.75
2022-12-04T16:38:56.633Z,80.78
2022-12-04T16:41:23.576Z,80.37
2022-12-04T16:43:56.171Z,80.15
2022-12-04T16:46:25.323Z,79.89
2022-12-04T16:48:52.484Z,80.49
2022-12-04T16:51:22.336Z,81.18
2022-12-04T16:53:51.945Z,81.20
2022-12-04T16:56:19.752Z,81.27
2022-12-04T16:58:46.967Z,81.35
2022-12-04T17:01:36.332Z,81.49
2022-12-04T17:04:03.537Z,81.46
2022-12-04T17:06:32.007Z,81.56
2022-12-04T17:08:59.097Z,81.55
2022-12-04T17:11:26.124Z,81.37
2022-12-04T17:13:53.151Z,81.30
2022-12-04T17:16:20.296Z,81.14
2022-12-04T17:18:47.252Z,81.02
2022-12-04T17:21:14.935Z,80.73
2022-12-04T17:23:42.301Z,80.64
2022-12-04T17:26:11.978Z,80.79
2022-12-04T17:28:39.101Z,81.32
2022-12-04T17:31:14.017Z,81.42
2022-12-04T17:33:41.329Z,81.16
2022-12-04T17:36:13.667Z,81.01
2022-12-04T17:38:41.328Z,81.27
2022-12-04T17:41:09.553Z,81.65
2022-12-04T17:43:36.919Z,81.77
2022-12-04T17:46:10.042Z,81.76
2022-12-04T17:48:37.064Z,81.82
2022-12-04T17:51:12.914Z,81.94
2022-12-04T17:53:40.175Z,81.94
2022-12-04T17:56:11.432Z,81.86
2022-12-04T17:58:38.823Z,81.94
2022-12-04T18:01:08.502Z,82.17
2022-12-04T18:03:35.799Z,82.12
2022-12-04T18:06:22.076Z,81.80
2022-12-04T18:08:50.442Z,81.53
2022-12-04T18:11:22.703Z,82.02
2022-12-04T18:13:55.468Z,82.11
2022-12-04T18:16:22.804Z,82.13
2022-12-04T18:18:50.869Z,82.27
2022-12-04T18:21:18.105Z,82.27
2022-12-04T18:23:45.821Z,82.30
2022-12-04T18:26:19.371Z,82.39
2022-12-04T18:28:47.744Z,82.32
2022-12-04T18:31:17.209Z,82.60
2022-12-04T18:33:46.276Z,82.61
2022-12-04T18:36:24.943Z,82.69
2022-12-04T18:38:57.617Z,82.63
2022-12-04T18:41:25.467Z,82.78
2022-12-04T18:43:52.978Z,82.95
2022-12-04T18:46:20.820Z,82.97
2022-12-04T18:48:49.093Z,83.03
2022-12-04T18:51:18.829Z,82.90
2022-12-04T18:53:46.372Z,82.81
2022-12-04T18:56:13.680Z,82.58
2022-12-04T18:58:40.883Z,82.33
2022-12-04T19:01:13.938Z,82.23
2022-12-04T19:03:41.699Z,82.56
2022-12-04T19:06:09.289Z,82.80
2022-12-04T19:08:41.410Z,82.84
2022-12-04T19:11:13.024Z,82.79
2022-12-04T19:13:40.248Z,82.58
2022-12-04T19:16:12.796Z,82.65
2022-12-04T19:18:39.923Z,82.49
2022-12-04T19:21:06.987Z,82.39
2022-12-04T19:23:34.243Z,82.39
2022-12-04T19:26:02.077Z,82.42
2022-12-04T19:28:29.424Z,82.30
2022-12-04T19:30:56.706Z,82.04
2022-12-04T19:33:24.796Z,81.88
2022-12-04T19:36:03.758Z,81.99
2022-12-04T19:38:32.314Z,82.02
2022-12-04T19:41:12.743Z,82.20
2022-12-04T19:43:43.858Z,82.00
2022-12-04T19:46:14.491Z,81.77
2022-12-04T19:48:42.537Z,81.59
2022-12-04T19:51:13.002Z,81.84
2022-12-04T19:53:41.291Z,81.89
2022-12-04T19:56:14.182Z,82.01
2022-12-04T19:58:41.936Z,82.45
2022-12-04T20:01:12.456Z,82.58
2022-12-04T20:03:39.636Z,82.82
2022-12-04T20:06:09.549Z,82.78
2022-12-04T20:08:36.801Z,82.64
2022-12-04T20:11:17.113Z,82.69
2022-12-04T20:13:45.655Z,82.52
2022-12-04T20:16:14.715Z,82.55
2022-12-04T20:18:42.603Z,82.42
2022-12-04T20:21:13.349Z,82.29
2022-12-04T20:23:42.071Z,82.33
2022-12-04T20:26:11.187Z,82.42
2022-12-04T20:28:38.366Z,82.26
2022-12-04T20:31:18.511Z,81.71
2022-12-04T20:33:47.972Z,81.41
2022-12-04T20:36:15.833Z,81.81
2022-12-04T20:38:42.888Z,81.95
2022-12-04T20:41:16.081Z,82.42
2022-12-04T20:43:43.971Z,82.64
2022-12-04T20:46:18.155Z,82.68
2022-12-04T20:48:49.203Z,82.75
2022-12-04T20:51:21.938Z,82.78
2022-12-04T20:53:49.952Z,82.72
2022-12-04T20:56:18.613Z,82.64
2022-12-04T20:58:46.137Z,82.67
2022-12-04T21:01:16.234Z,82.96
2022-12-04T21:03:44.205Z,83.44
2022-12-04T21:06:34.843Z,83.45
2022-12-04T21:09:06.020Z,83.13
2022-12-04T21:11:39.360Z,82.75
2022-12-04T21:14:30.906Z,82.57
2022-12-04T21:16:58.530Z,82.47
2022-12-04T21:19:26.128Z,82.22
2022-12-04T21:21:53.848Z,82.04
2022-12-04T21:24:22.643Z,81.86
2022-12-04T21:26:49.669Z,81.89
2022-12-04T21:29:16.532Z,81.80
2022-12-04T21:31:43.481Z,81.68
2022-12-04T21:34:12.303Z,81.92
2022-12-04T21:36:39.658Z,82.19
2022-12-04T21:39:07.362Z,82.32
2022-12-04T21:41:53.622Z,82.14
2022-12-04T21:44:22.019Z,81.95
2022-12-04T21:46:49.747Z,82.20
2022-12-04T21:49:18.102Z,82.33
2022-12-04T21:52:00.298Z,82.30
2022-12-04T21:54:27.893Z,81.76
2022-12-04T21:56:55.046Z,81.62
2022-12-04T21:59:22.174Z,81.49
2022-12-04T22:01:49.183Z,81.46
2022-12-04T22:04:16.393Z,81.48
2022-12-04T22:06:43.582Z,81.49
2022-12-04T22:09:12.173Z,82.07
2022-12-04T22:11:43.751Z,82.17
2022-12-04T22:14:11.676Z,82.36
2022-12-04T22:16:42.296Z,82.30
2022-12-04T22:19:12.068Z,82.18
2022-12-04T22:21:39.647Z,82.27
2022-12-04T22:24:07.189Z,82.42
2022-12-04T22:26:34.015Z,82.37
2022-12-04T22:29:00.927Z,82.07
2022-12-04T22:31:29.525Z,81.63
2022-12-04T22:33:59.061Z,81.26
2022-12-04T22:36:30.977Z,81.32
2022-12-04T22:39:09.251Z,81.46
2022-12-04T22:41:37.198Z,81.83
2022-12-04T22:44:04.542Z,81.92
2022-12-04T22:46:31.536Z,81.99
2022-12-04T22:48:59.165Z,81.93
2022-12-04T22:51:27.484Z,81.93
2022-12-04T22:53:56.235Z,81.91
2022-12-04T22:56:29.395Z,81.77
2022-12-04T22:58:57.947Z,81.74
2022-12-04T23:01:26.795Z,81.77
2022-12-04T23:03:54.147Z,81.61
2022-12-04T23:06:23.657Z,81.60
2022-12-04T23:08:58.565Z,81.49
2022-12-04T23:11:26.641Z,81.46
2022-12-04T23:13:56.864Z,81.76
2022-12-04T23:16:24.540Z,81.91
2022-12-04T23:18:51.890Z,81.99
2022-12-04T23:21:20.255Z,81.88
2022-12-04T23:23:48.111Z,81.69
2022-12-04T23:26:20.369Z,81.66
2022-12-04T23:28:47.301Z,81.72
2022-12-04T23:31:14.381Z,81.81
2022-12-04T23:33:41.735Z,81.57
2022-12-04T23:36:10.558Z,81.65
2022-12-04T23:38:40.217Z,81.85
2022-12-04T23:41:08.992Z,81.78
2022-12-04T23:43:36.063Z,81.63
2022-12-04T23:46:10.375Z,81.44
2022-12-04T23:48:39.365Z,81.33
2022-12-04T23:51:07.226Z,81.18
2022-12-04T23:53:34.295Z,80.92
2022-12-04T23:56:07.009Z,80.82
2022-12-04T23:58:35.482Z,80.69
